sensor_id;sensor_type;location;lat;lon;timestamp;temperature;humidity
71942;DHT22;59997;53.300;-6.260;2022-10-31T00:00:50;12.68;86.41
71942;DHT22;59997;53.300;-6.260;2022-10-31T00:03:17;12.77;86.29
71942;DHT22;59997;53.300;-6.260;2022-10-31T00:05:47;12.63;86.38
71942;DHT22;59997;53.300;-6.260;2022-10-31T00:08:13;12.50;86.51
71942;DHT22;59997;53.300;-6.260;2022-10-31T00:10:40;12.41;86.73
71942;DHT22;59997;53.300;-6.260;2022-10-31T00:13:06;12.21;86.97
71942;DHT22;59997;53.300;-6.260;2022-10-31T00:15:37;12.04;87.49
71942;DHT22;59997;53.300;-6.260;2022-10-31T00:18:04;11.87;87.94
71942;DHT22;59997;53.300;-6.260;2022-10-31T00:20:30;11.87;88.09
71942;DHT22;59997;53.300;-6.260;2022-10-31T00:23:00;12.04;87.76
71942;DHT22;59997;53.300;-6.260;2022-10-31T00:25:26;12.34;87.29
71942;DHT22;59997;53.300;-6.260;2022-10-31T00:27:52;12.75;85.91
71942;DHT22;59997;53.300;-6.260;2022-10-31T00:30:18;12.92;85.24
71942;DHT22;59997;53.300;-6.260;2022-10-31T00:32:44;12.92;85.04
71942;DHT22;59997;53.300;-6.260;2022-10-31T00:35:09;12.89;84.99
71942;DHT22;59997;53.300;-6.260;2022-10-31T00:37:35;12.78;85.07
71942;DHT22;59997;53.300;-6.260;2022-10-31T00:40:01;12.84;84.86
71942;DHT22;59997;53.300;-6.260;2022-10-31T00:42:26;12.98;84.08
71942;DHT22;59997;53.300;-6.260;2022-10-31T00:44:52;12.88;84.10
71942;DHT22;59997;53.300;-6.260;2022-10-31T00:47:17;12.71;84.58
71942;DHT22;59997;53.300;-6.260;2022-10-31T00:49:43;12.54;85.14
71942;DHT22;59997;53.300;-6.260;2022-10-31T00:52:08;12.57;85.19
71942;DHT22;59997;53.300;-6.260;2022-10-31T00:54:33;12.56;85.20
71942;DHT22;59997;53.300;-6.260;2022-10-31T00:56:59;12.46;85.48
71942;DHT22;59997;53.300;-6.260;2022-10-31T00:59:24;12.54;85.65
71942;DHT22;59997;53.300;-6.260;2022-10-31T01:01:50;12.71;85.11
71942;DHT22;59997;53.300;-6.260;2022-10-31T01:04:15;12.69;84.78
71942;DHT22;59997;53.300;-6.260;2022-10-31T01:06:41;12.64;84.82
71942;DHT22;59997;53.300;-6.260;2022-10-31T01:09:07;12.78;84.38
71942;DHT22;59997;53.300;-6.260;2022-10-31T01:11:32;12.92;84.14
71942;DHT22;59997;53.300;-6.260;2022-10-31T01:13:58;12.80;84.29
71942;DHT22;59997;53.300;-6.260;2022-10-31T01:16:25;13.02;83.50
71942;DHT22;59997;53.300;-6.260;2022-10-31T01:18:52;13.00;83.53
71942;DHT22;59997;53.300;-6.260;2022-10-31T01:21:26;13.09;83.20
71942;DHT22;59997;53.300;-6.260;2022-10-31T01:23:55;13.09;83.41
71942;DHT22;59997;53.300;-6.260;2022-10-31T01:26:24;12.93;83.91
71942;DHT22;59997;53.300;-6.260;2022-10-31T01:31:16;13.00;84.47
71942;DHT22;59997;53.300;-6.260;2022-10-31T01:33:42;13.08;84.60
71942;DHT22;59997;53.300;-6.260;2022-10-31T01:36:19;13.16;84.68
71942;DHT22;59997;53.300;-6.260;2022-10-31T01:38:46;13.39;83.54
71942;DHT22;59997;53.300;-6.260;2022-10-31T01:41:13;13.44;83.20
71942;DHT22;59997;53.300;-6.260;2022-10-31T01:44:43;13.40;83.42
71942;DHT22;59997;53.300;-6.260;2022-10-31T01:46:54;13.33;83.63
71942;DHT22;59997;53.300;-6.260;2022-10-31T01:54:35;13.36;82.42
71942;DHT22;59997;53.300;-6.260;2022-10-31T01:57:02;13.43;81.70
71942;DHT22;59997;53.300;-6.260;2022-10-31T01:59:30;13.50;81.39
71942;DHT22;59997;53.300;-6.260;2022-10-31T02:01:57;13.55;81.33
71942;DHT22;59997;53.300;-6.260;2022-10-31T02:04:24;13.57;81.41
71942;DHT22;59997;53.300;-6.260;2022-10-31T02:07:04;13.58;81.57
71942;DHT22;59997;53.300;-6.260;2022-10-31T02:09:31;13.61;81.81
71942;DHT22;59997;53.300;-6.260;2022-10-31T02:11:59;13.47;82.45
71942;DHT22;59997;53.300;-6.260;2022-10-31T02:14:26;13.40;82.93
71942;DHT22;59997;53.300;-6.260;2022-10-31T02:16:53;13.37;83.05
71942;DHT22;59997;53.300;-6.260;2022-10-31T02:24:52;13.41;82.89
71942;DHT22;59997;53.300;-6.260;2022-10-31T02:27:37;13.40;83.01
71942;DHT22;59997;53.300;-6.260;2022-10-31T02:30:21;13.54;82.36
71942;DHT22;59997;53.300;-6.260;2022-10-31T02:36:25;13.69;81.93
71942;DHT22;59997;53.300;-6.260;2022-10-31T02:41:47;13.74;81.61
71942;DHT22;59997;53.300;-6.260;2022-10-31T02:46:54;13.64;81.92
71942;DHT22;59997;53.300;-6.260;2022-10-31T02:52:21;13.72;81.90
71942;DHT22;59997;53.300;-6.260;2022-10-31T02:54:49;13.69;82.07
71942;DHT22;59997;53.300;-6.260;2022-10-31T02:57:16;13.67;82.12
71942;DHT22;59997;53.300;-6.260;2022-10-31T02:59:48;13.64;81.80
71942;DHT22;59997;53.300;-6.260;2022-10-31T03:02:32;13.72;81.71
71942;DHT22;59997;53.300;-6.260;2022-10-31T03:08:21;13.71;82.15
71942;DHT22;59997;53.300;-6.260;2022-10-31T03:11:14;13.72;82.15
71942;DHT22;59997;53.300;-6.260;2022-10-31T03:16:45;13.72;82.01
71942;DHT22;59997;53.300;-6.260;2022-10-31T03:19:23;13.78;81.66
71942;DHT22;59997;53.300;-6.260;2022-10-31T03:22:04;13.71;81.97
71942;DHT22;59997;53.300;-6.260;2022-10-31T03:24:36;13.65;81.79
71942;DHT22;59997;53.300;-6.260;2022-10-31T03:27:03;13.64;81.75
71942;DHT22;59997;53.300;-6.260;2022-10-31T03:29:34;13.55;82.31
71942;DHT22;59997;53.300;-6.260;2022-10-31T03:32:07;13.62;82.80
71942;DHT22;59997;53.300;-6.260;2022-10-31T03:34:36;13.55;83.48
71942;DHT22;59997;53.300;-6.260;2022-10-31T03:37:04;13.54;83.73
71942;DHT22;59997;53.300;-6.260;2022-10-31T03:39:32;13.41;83.95
71942;DHT22;59997;53.300;-6.260;2022-10-31T03:42:05;13.41;83.88
71942;DHT22;59997;53.300;-6.260;2022-10-31T03:44:32;13.47;83.13
71942;DHT22;59997;53.300;-6.260;2022-10-31T03:46:58;13.61;82.59
71942;DHT22;59997;53.300;-6.260;2022-10-31T03:49:24;13.60;82.49
71942;DHT22;59997;53.300;-6.260;2022-10-31T03:52:00;13.67;81.72
71942;DHT22;59997;53.300;-6.260;2022-10-31T03:54:41;13.65;81.86
71942;DHT22;59997;53.300;-6.260;2022-10-31T03:57:23;13.61;82.42
71942;DHT22;59997;53.300;-6.260;2022-10-31T04:00:06;13.47;83.77
71942;DHT22;59997;53.300;-6.260;2022-10-31T04:02:34;13.39;84.84
71942;DHT22;59997;53.300;-6.260;2022-10-31T04:05:02;13.26;86.19
71942;DHT22;59997;53.300;-6.260;2022-10-31T04:07:33;13.09;86.54
71942;DHT22;59997;53.300;-6.260;2022-10-31T04:10:02;13.00;86.64
71942;DHT22;59997;53.300;-6.260;2022-10-31T04:12:29;12.98;86.34
71942;DHT22;59997;53.300;-6.260;2022-10-31T04:14:56;12.99;86.04
71942;DHT22;59997;53.300;-6.260;2022-10-31T04:17:23;13.03;85.64
71942;DHT22;59997;53.300;-6.260;2022-10-31T04:19:50;13.06;85.39
71942;DHT22;59997;53.300;-6.260;2022-10-31T04:22:16;13.08;85.29
71942;DHT22;59997;53.300;-6.260;2022-10-31T04:24:41;13.05;85.51
71942;DHT22;59997;53.300;-6.260;2022-10-31T04:27:07;13.19;85.42
71942;DHT22;59997;53.300;-6.260;2022-10-31T04:29:32;13.33;85.25
71942;DHT22;59997;53.300;-6.260;2022-10-31T04:31:58;13.32;85.35
71942;DHT22;59997;53.300;-6.260;2022-10-31T04:34:24;13.27;85.45
71942;DHT22;59997;53.300;-6.260;2022-10-31T04:36:49;13.32;85.04
71942;DHT22;59997;53.300;-6.260;2022-10-31T04:39:14;13.30;84.94
71942;DHT22;59997;53.300;-6.260;2022-10-31T04:41:40;13.41;84.27
71942;DHT22;59997;53.300;-6.260;2022-10-31T04:44:05;13.47;83.77
71942;DHT22;59997;53.300;-6.260;2022-10-31T04:46:31;13.53;83.49
71942;DHT22;59997;53.300;-6.260;2022-10-31T04:48:57;13.44;83.31
71942;DHT22;59997;53.300;-6.260;2022-10-31T04:51:22;13.39;83.26
71942;DHT22;59997;53.300;-6.260;2022-10-31T04:53:48;13.47;82.65
71942;DHT22;59997;53.300;-6.260;2022-10-31T04:56:13;13.53;82.56
71942;DHT22;59997;53.300;-6.260;2022-10-31T04:58:39;13.60;82.16
71942;DHT22;59997;53.300;-6.260;2022-10-31T05:01:04;13.54;82.30
71942;DHT22;59997;53.300;-6.260;2022-10-31T05:03:30;13.62;82.36
71942;DHT22;59997;53.300;-6.260;2022-10-31T05:05:55;13.71;82.08
71942;DHT22;59997;53.300;-6.260;2022-10-31T05:08:21;13.74;82.21
71942;DHT22;59997;53.300;-6.260;2022-10-31T05:10:46;13.75;82.10
71942;DHT22;59997;53.300;-6.260;2022-10-31T05:13:11;13.78;82.25
71942;DHT22;59997;53.300;-6.260;2022-10-31T05:15:37;13.93;82.25
71942;DHT22;59997;53.300;-6.260;2022-10-31T05:18:03;13.92;82.15
71942;DHT22;59997;53.300;-6.260;2022-10-31T05:20:30;13.89;82.13
71942;DHT22;59997;53.300;-6.260;2022-10-31T05:22:57;13.98;82.12
71942;DHT22;59997;53.300;-6.260;2022-10-31T05:25:25;13.96;82.30
71942;DHT22;59997;53.300;-6.260;2022-10-31T05:27:52;14.05;82.13
71942;DHT22;59997;53.300;-6.260;2022-10-31T05:30:21;13.99;82.45
71942;DHT22;59997;53.300;-6.260;2022-10-31T05:32:48;13.87;82.93
71942;DHT22;59997;53.300;-6.260;2022-10-31T05:35:25;13.90;83.52
71942;DHT22;59997;53.300;-6.260;2022-10-31T05:37:51;13.85;84.21
71942;DHT22;59997;53.300;-6.260;2022-10-31T05:40:18;13.81;84.73
71942;DHT22;59997;53.300;-6.260;2022-10-31T05:42:44;13.69;85.10
71942;DHT22;59997;53.300;-6.260;2022-10-31T05:45:15;13.62;85.42
71942;DHT22;59997;53.300;-6.260;2022-10-31T05:47:41;13.51;85.54
71942;DHT22;59997;53.300;-6.260;2022-10-31T05:50:08;13.58;84.74
71942;DHT22;59997;53.300;-6.260;2022-10-31T05:52:34;13.75;83.84
71942;DHT22;59997;53.300;-6.260;2022-10-31T05:55:00;13.79;83.73
71942;DHT22;59997;53.300;-6.260;2022-10-31T05:57:25;13.77;83.78
71942;DHT22;59997;53.300;-6.260;2022-10-31T05:59:50;13.89;83.52
71942;DHT22;59997;53.300;-6.260;2022-10-31T06:02:20;13.90;83.66
71942;DHT22;59997;53.300;-6.260;2022-10-31T06:04:45;13.82;83.80
71942;DHT22;59997;53.300;-6.260;2022-10-31T06:07:11;13.87;83.65
71942;DHT22;59997;53.300;-6.260;2022-10-31T06:09:36;13.83;83.68
71942;DHT22;59997;53.300;-6.260;2022-10-31T06:12:02;13.95;83.43
71942;DHT22;59997;53.300;-6.260;2022-10-31T06:14:27;14.01;83.13
71942;DHT22;59997;53.300;-6.260;2022-10-31T06:16:54;13.98;83.29
71942;DHT22;59997;53.300;-6.260;2022-10-31T06:19:20;14.01;83.05
71942;DHT22;59997;53.300;-6.260;2022-10-31T06:21:45;13.95;83.40
71942;DHT22;59997;53.300;-6.260;2022-10-31T06:24:10;13.83;83.45
71942;DHT22;59997;53.300;-6.260;2022-10-31T06:26:36;13.89;83.26
71942;DHT22;59997;53.300;-6.260;2022-10-31T06:29:01;13.99;82.72
71942;DHT22;59997;53.300;-6.260;2022-10-31T06:31:27;14.06;82.17
71942;DHT22;59997;53.300;-6.260;2022-10-31T06:33:52;14.14;81.70
71942;DHT22;59997;53.300;-6.260;2022-10-31T06:36:18;14.12;81.76
71942;DHT22;59997;53.300;-6.260;2022-10-31T06:38:43;14.14;81.91
71942;DHT22;59997;53.300;-6.260;2022-10-31T06:41:09;14.09;82.47
71942;DHT22;59997;53.300;-6.260;2022-10-31T06:43:34;14.10;82.45
71942;DHT22;59997;53.300;-6.260;2022-10-31T06:46:04;14.20;82.30
71942;DHT22;59997;53.300;-6.260;2022-10-31T06:48:30;14.21;82.39
71942;DHT22;59997;53.300;-6.260;2022-10-31T06:51:02;14.09;83.04
71942;DHT22;59997;53.300;-6.260;2022-10-31T06:53:28;14.05;83.02
71942;DHT22;59997;53.300;-6.260;2022-10-31T06:55:56;14.06;82.82
71942;DHT22;59997;53.300;-6.260;2022-10-31T06:58:22;14.27;81.97
71942;DHT22;59997;53.300;-6.260;2022-10-31T07:00:47;14.38;82.08
71942;DHT22;59997;53.300;-6.260;2022-10-31T07:03:14;14.37;82.15
71942;DHT22;59997;53.300;-6.260;2022-10-31T07:05:41;14.36;82.69
71942;DHT22;59997;53.300;-6.260;2022-10-31T07:08:09;14.24;83.63
71942;DHT22;59997;53.300;-6.260;2022-10-31T07:10:35;14.13;84.00
71942;DHT22;59997;53.300;-6.260;2022-10-31T07:13:04;14.02;84.27
71942;DHT22;59997;53.300;-6.260;2022-10-31T07:15:33;14.10;84.07
71942;DHT22;59997;53.300;-6.260;2022-10-31T07:18:00;14.13;83.97
71942;DHT22;59997;53.300;-6.260;2022-10-31T07:20:28;14.16;83.58
71942;DHT22;59997;53.300;-6.260;2022-10-31T07:22:54;14.21;83.17
71942;DHT22;59997;53.300;-6.260;2022-10-31T07:25:20;14.26;82.77
71942;DHT22;59997;53.300;-6.260;2022-10-31T07:27:46;14.31;82.51
71942;DHT22;59997;53.300;-6.260;2022-10-31T07:30:12;14.31;82.35
71942;DHT22;59997;53.300;-6.260;2022-10-31T07:32:42;14.30;82.14
71942;DHT22;59997;53.300;-6.260;2022-10-31T07:35:10;14.31;82.10
71942;DHT22;59997;53.300;-6.260;2022-10-31T07:37:36;14.36;81.66
71942;DHT22;59997;53.300;-6.260;2022-10-31T07:40:05;14.44;82.09
71942;DHT22;59997;53.300;-6.260;2022-10-31T07:42:39;14.23;83.62
71942;DHT22;59997;53.300;-6.260;2022-10-31T07:45:06;14.03;84.64
71942;DHT22;59997;53.300;-6.260;2022-10-31T07:47:43;13.92;84.32
71942;DHT22;59997;53.300;-6.260;2022-10-31T07:50:11;13.86;84.25
71942;DHT22;59997;53.300;-6.260;2022-10-31T07:52:37;13.90;83.54
71942;DHT22;59997;53.300;-6.260;2022-10-31T07:55:03;13.98;83.27
71942;DHT22;59997;53.300;-6.260;2022-10-31T07:57:29;14.09;83.01
71942;DHT22;59997;53.300;-6.260;2022-10-31T07:59:54;14.17;82.34
71942;DHT22;59997;53.300;-6.260;2022-10-31T08:02:20;14.17;82.57
71942;DHT22;59997;53.300;-6.260;2022-10-31T08:04:46;14.23;82.05
71942;DHT22;59997;53.300;-6.260;2022-10-31T08:07:12;14.34;81.24
71942;DHT22;59997;53.300;-6.260;2022-10-31T08:09:37;14.48;81.27
71942;DHT22;59997;53.300;-6.260;2022-10-31T08:12:03;14.57;80.76
71942;DHT22;59997;53.300;-6.260;2022-10-31T08:14:28;14.73;79.91
71942;DHT22;59997;53.300;-6.260;2022-10-31T08:16:54;14.85;80.15
71942;DHT22;59997;53.300;-6.260;2022-10-31T08:19:21;14.83;80.13
71942;DHT22;59997;53.300;-6.260;2022-10-31T08:21:50;14.89;79.84
71942;DHT22;59997;53.300;-6.260;2022-10-31T08:24:16;14.97;79.20
71942;DHT22;59997;53.300;-6.260;2022-10-31T08:26:41;15.03;78.88
71942;DHT22;59997;53.300;-6.260;2022-10-31T08:29:07;15.04;78.83
71942;DHT22;59997;53.300;-6.260;2022-10-31T08:31:32;15.10;79.04
71942;DHT22;59997;53.300;-6.260;2022-10-31T08:33:58;15.04;77.74
71942;DHT22;59997;53.300;-6.260;2022-10-31T08:36:23;15.14;76.90
71942;DHT22;59997;53.300;-6.260;2022-10-31T08:38:48;15.40;76.08
71942;DHT22;59997;53.300;-6.260;2022-10-31T08:41:14;15.54;75.51
71942;DHT22;59997;53.300;-6.260;2022-10-31T08:43:40;15.73;74.80
71942;DHT22;59997;53.300;-6.260;2022-10-31T08:46:06;15.73;74.46
71942;DHT22;59997;53.300;-6.260;2022-10-31T08:48:31;15.61;75.27
71942;DHT22;59997;53.300;-6.260;2022-10-31T08:50:58;15.59;75.63
71942;DHT22;59997;53.300;-6.260;2022-10-31T08:53:25;15.61;75.14
71942;DHT22;59997;53.300;-6.260;2022-10-31T08:55:53;15.67;75.65
71942;DHT22;59997;53.300;-6.260;2022-10-31T08:58:19;15.65;75.60
71942;DHT22;59997;53.300;-6.260;2022-10-31T09:00:47;15.62;75.88
71942;DHT22;59997;53.300;-6.260;2022-10-31T09:03:22;15.58;76.07
71942;DHT22;59997;53.300;-6.260;2022-10-31T09:05:48;15.48;77.31
71942;DHT22;59997;53.300;-6.260;2022-10-31T09:08:15;15.31;78.07
71942;DHT22;59997;53.300;-6.260;2022-10-31T09:10:41;15.16;78.90
71942;DHT22;59997;53.300;-6.260;2022-10-31T09:13:09;15.11;79.06
71942;DHT22;59997;53.300;-6.260;2022-10-31T09:15:38;15.04;80.09
71942;DHT22;59997;53.300;-6.260;2022-10-31T09:18:07;15.03;80.22
71942;DHT22;59997;53.300;-6.260;2022-10-31T09:20:35;14.89;81.04
71942;DHT22;59997;53.300;-6.260;2022-10-31T09:23:11;14.72;82.01
71942;DHT22;59997;53.300;-6.260;2022-10-31T09:25:37;14.60;82.48
71942;DHT22;59997;53.300;-6.260;2022-10-31T09:28:05;14.60;82.73
71942;DHT22;59997;53.300;-6.260;2022-10-31T09:30:33;14.69;81.71
71942;DHT22;59997;53.300;-6.260;2022-10-31T09:33:00;14.79;80.14
71942;DHT22;59997;53.300;-6.260;2022-10-31T09:35:26;14.82;80.24
71942;DHT22;59997;53.300;-6.260;2022-10-31T09:38:00;14.89;80.02
71942;DHT22;59997;53.300;-6.260;2022-10-31T09:40:44;14.97;79.53
71942;DHT22;59997;53.300;-6.260;2022-10-31T09:48:48;16.40;75.00
71942;DHT22;59997;53.300;-6.260;2022-10-31T09:51:30;16.32;73.77
71942;DHT22;59997;53.300;-6.260;2022-10-31T09:54:06;16.68;73.68
71942;DHT22;59997;53.300;-6.260;2022-10-31T09:56:33;17.08;72.52
71942;DHT22;59997;53.300;-6.260;2022-10-31T09:59:02;17.43;70.60
71942;DHT22;59997;53.300;-6.260;2022-10-31T10:06:51;17.06;72.47
71942;DHT22;59997;53.300;-6.260;2022-10-31T10:09:19;16.90;72.21
71942;DHT22;59997;53.300;-6.260;2022-10-31T10:12:01;16.80;72.52
71942;DHT22;59997;53.300;-6.260;2022-10-31T10:25:50;16.84;72.24
71942;DHT22;59997;53.300;-6.260;2022-10-31T10:28:22;16.75;72.65
71942;DHT22;59997;53.300;-6.260;2022-10-31T10:30:56;16.66;72.32
71942;DHT22;59997;53.300;-6.260;2022-10-31T10:36:56;17.00;71.74
71942;DHT22;59997;53.300;-6.260;2022-10-31T10:39:27;17.42;71.18
71942;DHT22;59997;53.300;-6.260;2022-10-31T10:41:55;17.52;70.55
71942;DHT22;59997;53.300;-6.260;2022-10-31T10:44:45;17.47;69.84
71942;DHT22;59997;53.300;-6.260;2022-10-31T10:47:39;17.55;69.95
71942;DHT22;59997;53.300;-6.260;2022-10-31T10:50:20;17.94;69.03
71942;DHT22;59997;53.300;-6.260;2022-10-31T10:52:52;17.96;68.72
71942;DHT22;59997;53.300;-6.260;2022-10-31T11:02:50;17.90;69.06
71942;DHT22;59997;53.300;-6.260;2022-10-31T11:05:37;18.74;68.02
71942;DHT22;59997;53.300;-6.260;2022-10-31T11:08:05;18.90;66.26
71942;DHT22;59997;53.300;-6.260;2022-10-31T11:10:31;18.46;66.90
71942;DHT22;59997;53.300;-6.260;2022-10-31T11:18:30;17.98;68.81
71942;DHT22;59997;53.300;-6.260;2022-10-31T11:20:58;18.14;68.72
71942;DHT22;59997;53.300;-6.260;2022-10-31T11:23:26;18.18;69.43
71942;DHT22;59997;53.300;-6.260;2022-10-31T11:25:57;19.02;66.35
71942;DHT22;59997;53.300;-6.260;2022-10-31T11:28:24;18.68;66.61
71942;DHT22;59997;53.300;-6.260;2022-10-31T11:30:54;18.29;67.33
71942;DHT22;59997;53.300;-6.260;2022-10-31T11:36:22;19.00;66.60
71942;DHT22;59997;53.300;-6.260;2022-10-31T11:38:49;19.79;63.70
71942;DHT22;59997;53.300;-6.260;2022-10-31T11:41:18;19.87;63.47
71942;DHT22;59997;53.300;-6.260;2022-10-31T11:43:53;19.22;64.54
71942;DHT22;59997;53.300;-6.260;2022-10-31T11:46:25;18.88;68.42
71942;DHT22;59997;53.300;-6.260;2022-10-31T11:48:54;18.39;68.21
71942;DHT22;59997;53.300;-6.260;2022-10-31T11:51:23;18.11;70.08
71942;DHT22;59997;53.300;-6.260;2022-10-31T11:53:55;17.69;72.27
71942;DHT22;59997;53.300;-6.260;2022-10-31T11:56:22;17.21;74.48
71942;DHT22;59997;53.300;-6.260;2022-10-31T11:58:55;16.94;75.14
71942;DHT22;59997;53.300;-6.260;2022-10-31T12:01:27;16.84;75.38
71942;DHT22;59997;53.300;-6.260;2022-10-31T12:04:10;16.70;74.85
71942;DHT22;59997;53.300;-6.260;2022-10-31T12:06:41;16.83;74.95
71942;DHT22;59997;53.300;-6.260;2022-10-31T12:09:30;17.06;73.93
71942;DHT22;59997;53.300;-6.260;2022-10-31T12:34:00;17.17;73.80
71942;DHT22;59997;53.300;-6.260;2022-10-31T12:58:46;16.31;75.16
71942;DHT22;59997;53.300;-6.260;2022-10-31T13:01:20;16.22;75.43
71942;DHT22;59997;53.300;-6.260;2022-10-31T13:03:55;16.07;75.04
71942;DHT22;59997;53.300;-6.260;2022-10-31T13:06:29;16.01;74.49
71942;DHT22;59997;53.300;-6.260;2022-10-31T13:09:00;15.97;75.73
71942;DHT22;59997;53.300;-6.260;2022-10-31T13:11:33;15.87;76.24
71942;DHT22;59997;53.300;-6.260;2022-10-31T13:16:35;15.63;78.47
71942;DHT22;59997;53.300;-6.260;2022-10-31T13:19:27;15.35;79.39
71942;DHT22;59997;53.300;-6.260;2022-10-31T13:24:46;14.99;80.31
71942;DHT22;59997;53.300;-6.260;2022-10-31T13:27:21;14.89;80.24
71942;DHT22;59997;53.300;-6.260;2022-10-31T13:30:04;14.88;79.97
71942;DHT22;59997;53.300;-6.260;2022-10-31T13:32:53;14.99;80.52
71942;DHT22;59997;53.300;-6.260;2022-10-31T13:40:55;14.58;81.93
71942;DHT22;59997;53.300;-6.260;2022-10-31T13:43:35;14.65;80.81
71942;DHT22;59997;53.300;-6.260;2022-10-31T13:46:34;14.69;80.26
71942;DHT22;59997;53.300;-6.260;2022-10-31T13:49:00;14.72;80.35
71942;DHT22;59997;53.300;-6.260;2022-10-31T13:51:31;14.73;79.94
71942;DHT22;59997;53.300;-6.260;2022-10-31T13:53:59;14.76;80.27
71942;DHT22;59997;53.300;-6.260;2022-10-31T13:56:33;14.78;80.36
71942;DHT22;59997;53.300;-6.260;2022-10-31T13:59:16;14.79;80.11
71942;DHT22;59997;53.300;-6.260;2022-10-31T14:01:52;14.85;79.17
71942;DHT22;59997;53.300;-6.260;2022-10-31T14:04:36;14.95;79.50
71942;DHT22;59997;53.300;-6.260;2022-10-31T14:07:11;15.04;79.36
71942;DHT22;59997;53.300;-6.260;2022-10-31T14:10:07;15.04;78.30
71942;DHT22;59997;53.300;-6.260;2022-10-31T14:12:45;15.03;78.30
71942;DHT22;59997;53.300;-6.260;2022-10-31T14:15:18;14.97;80.34
71942;DHT22;59997;53.300;-6.260;2022-10-31T14:17:54;14.82;80.09
71942;DHT22;59997;53.300;-6.260;2022-10-31T14:22:54;14.68;79.74
71942;DHT22;59997;53.300;-6.260;2022-10-31T14:25:31;14.71;80.06
71942;DHT22;59997;53.300;-6.260;2022-10-31T14:27:59;14.75;79.63
71942;DHT22;59997;53.300;-6.260;2022-10-31T14:30:26;14.80;80.25
71942;DHT22;59997;53.300;-6.260;2022-10-31T14:32:58;14.83;78.67
71942;DHT22;59997;53.300;-6.260;2022-10-31T14:46:50;14.90;77.38
71942;DHT22;59997;53.300;-6.260;2022-10-31T14:49:49;14.80;77.41
71942;DHT22;59997;53.300;-6.260;2022-10-31T14:52:17;14.68;78.57
71942;DHT22;59997;53.300;-6.260;2022-10-31T14:54:48;14.45;80.68
71942;DHT22;59997;53.300;-6.260;2022-10-31T14:57:22;14.12;82.77
71942;DHT22;59997;53.300;-6.260;2022-10-31T14:59:51;13.86;84.43
71942;DHT22;59997;53.300;-6.260;2022-10-31T15:02:28;13.47;86.13
71942;DHT22;59997;53.300;-6.260;2022-10-31T15:04:55;13.10;87.15
71942;DHT22;59997;53.300;-6.260;2022-10-31T15:07:24;12.89;87.78
71942;DHT22;59997;53.300;-6.260;2022-10-31T15:10:01;12.68;88.43
71942;DHT22;59997;53.300;-6.260;2022-10-31T15:12:29;12.57;87.51
71942;DHT22;59997;53.300;-6.260;2022-10-31T15:14:55;12.46;88.07
71942;DHT22;59997;53.300;-6.260;2022-10-31T15:17:23;12.33;88.49
71942;DHT22;59997;53.300;-6.260;2022-10-31T15:19:50;12.29;88.33
71942;DHT22;59997;53.300;-6.260;2022-10-31T15:22:19;12.25;88.45
71942;DHT22;59997;53.300;-6.260;2022-10-31T15:24:45;12.16;88.77
71942;DHT22;59997;53.300;-6.260;2022-10-31T15:27:13;12.18;88.85
71942;DHT22;59997;53.300;-6.260;2022-10-31T15:29:48;12.11;88.98
71942;DHT22;59997;53.300;-6.260;2022-10-31T15:32:25;12.09;89.24
71942;DHT22;59997;53.300;-6.260;2022-10-31T15:34:52;12.13;89.37
71942;DHT22;59997;53.300;-6.260;2022-10-31T15:37:20;12.11;89.77
71942;DHT22;59997;53.300;-6.260;2022-10-31T15:39:48;12.06;90.10
71942;DHT22;59997;53.300;-6.260;2022-10-31T15:42:39;12.19;90.15
71942;DHT22;59997;53.300;-6.260;2022-10-31T15:45:17;12.16;89.99
71942;DHT22;59997;53.300;-6.260;2022-10-31T15:48:03;12.15;90.18
71942;DHT22;59997;53.300;-6.260;2022-10-31T15:50:38;12.11;90.36
71942;DHT22;59997;53.300;-6.260;2022-10-31T15:53:10;12.09;90.19
71942;DHT22;59997;53.300;-6.260;2022-10-31T15:55:48;12.02;90.10
71942;DHT22;59997;53.300;-6.260;2022-10-31T15:58:16;11.98;89.93
71942;DHT22;59997;53.300;-6.260;2022-10-31T16:00:42;11.85;89.99
71942;DHT22;59997;53.300;-6.260;2022-10-31T16:05:39;11.71;90.26
71942;DHT22;59997;53.300;-6.260;2022-10-31T16:13:29;11.54;91.14
71942;DHT22;59997;53.300;-6.260;2022-10-31T16:15:58;11.62;91.19
71942;DHT22;59997;53.300;-6.260;2022-10-31T16:18:26;11.64;91.03
71942;DHT22;59997;53.300;-6.260;2022-10-31T16:20:54;11.63;91.07
71942;DHT22;59997;53.300;-6.260;2022-10-31T16:23:23;11.70;91.15
71942;DHT22;59997;53.300;-6.260;2022-10-31T16:25:50;11.71;91.25
71942;DHT22;59997;53.300;-6.260;2022-10-31T16:28:18;11.74;91.27
71942;DHT22;59997;53.300;-6.260;2022-10-31T16:30:45;11.71;91.34
71942;DHT22;59997;53.300;-6.260;2022-10-31T16:33:31;11.67;91.40
71942;DHT22;59997;53.300;-6.260;2022-10-31T16:35:59;11.74;91.41
71942;DHT22;59997;53.300;-6.260;2022-10-31T16:38:26;11.78;91.36
71942;DHT22;59997;53.300;-6.260;2022-10-31T16:40:51;11.81;91.41
71942;DHT22;59997;53.300;-6.260;2022-10-31T16:43:18;11.78;91.48
71942;DHT22;59997;53.300;-6.260;2022-10-31T16:45:50;11.82;91.43
71942;DHT22;59997;53.300;-6.260;2022-10-31T16:48:19;11.75;91.35
71942;DHT22;59997;53.300;-6.260;2022-10-31T16:50:47;11.70;91.43
71942;DHT22;59997;53.300;-6.260;2022-10-31T16:53:13;11.70;91.55
71942;DHT22;59997;53.300;-6.260;2022-10-31T16:55:46;11.84;91.45
71942;DHT22;59997;53.300;-6.260;2022-10-31T16:58:16;11.80;91.42
71942;DHT22;59997;53.300;-6.260;2022-10-31T17:00:42;11.74;91.51
71942;DHT22;59997;53.300;-6.260;2022-10-31T17:03:08;11.71;91.54
71942;DHT22;59997;53.300;-6.260;2022-10-31T17:05:35;11.73;91.56
71942;DHT22;59997;53.300;-6.260;2022-10-31T17:08:01;11.62;91.58
71942;DHT22;59997;53.300;-6.260;2022-10-31T17:10:27;11.50;91.73
71942;DHT22;59997;53.300;-6.260;2022-10-31T17:12:53;11.49;91.83
71942;DHT22;59997;53.300;-6.260;2022-10-31T17:15:24;11.56;91.95
71942;DHT22;59997;53.300;-6.260;2022-10-31T17:17:50;11.54;91.85
71942;DHT22;59997;53.300;-6.260;2022-10-31T17:20:30;11.47;91.85
71942;DHT22;59997;53.300;-6.260;2022-10-31T17:22:56;11.43;91.92
71942;DHT22;59997;53.300;-6.260;2022-10-31T17:25:28;11.42;91.99
71942;DHT22;59997;53.300;-6.260;2022-10-31T17:27:55;11.44;92.03
71942;DHT22;59997;53.300;-6.260;2022-10-31T17:30:22;11.49;92.07
71942;DHT22;59997;53.300;-6.260;2022-10-31T17:32:48;11.44;92.06
71942;DHT22;59997;53.300;-6.260;2022-10-31T17:35:15;11.52;92.09
71942;DHT22;59997;53.300;-6.260;2022-10-31T17:37:42;11.53;92.12
71942;DHT22;59997;53.300;-6.260;2022-10-31T17:40:12;11.57;92.21
71942;DHT22;59997;53.300;-6.260;2022-10-31T17:42:37;11.56;92.13
71942;DHT22;59997;53.300;-6.260;2022-10-31T17:45:05;11.53;92.20
71942;DHT22;59997;53.300;-6.260;2022-10-31T17:47:30;11.50;92.27
71942;DHT22;59997;53.300;-6.260;2022-10-31T17:49:56;11.56;92.21
71942;DHT22;59997;53.300;-6.260;2022-10-31T17:52:21;11.74;92.23
71942;DHT22;59997;53.300;-6.260;2022-10-31T17:54:47;11.70;92.17
71942;DHT22;59997;53.300;-6.260;2022-10-31T17:57:13;11.64;92.24
71942;DHT22;59997;53.300;-6.260;2022-10-31T17:59:38;11.73;92.32